Etusivu
METAR-TAF:

METAR-TAF

Lentoasemat :

Deming, New Mexico, Yhdysvallat

Leveyspiiri: 32-15-44N, Pituuspiiri: 107-43-14W, korkeus merenpinnasta: 1315 m

Tämänhetkinen sää

Tämä raportti tehtiin 51 minuuttia sitten, kello 18.53 UTC
Tuuli 3 kn eri suunnista
Lämpötila -50°C
Kosteus 10,049%
Ilmanpaine 1021 hPa

METAR: KDMN 191853Z AUTO VRB03KT M50/ A3014 RMK AO2 SLP289 T1500 $

Aika: 12:44 (19:44 UTC)

Sääennuste

Tämä raportti tehtiin 2 tuntia ja 21 minuuttia sitten, kello 17.23 UTC
Ennuste voimassa 19. päivästä klo 18 UTC - 20. päivään klo 18 UTC
Tuuli 8 kn etelästä
Näkyvyys: 10 km
Muutamia pilviä 15000 ft:n korkeudessa
Hajonneita pilviä 25000 ft:n korkeudessa
From 20. päivästä klo 0200 UTC
Tuuli 5 kn lännestä/luoteesta
Näkyvyys: 10 km
Hajonneita pilviä 25000 ft:n korkeudessa
From 20. päivästä klo 1600 UTC
Tuuli 10 kn idästä/koillisesta
Näkyvyys: 10 km
selkeää

TAF: KDMN 191723Z 1918/2018 17008KT P6SM FEW150 BKN250 FM200200 29005KT P6SM BKN250 FM201600 07010KT P6SM SKC

Säähavainnot ja -ennusteet yli 4000 lentoasemalta (METAR- ja TAF-raportit).

Käytössä olevat sääasemat on merkitty karttaan keltaisilla ja punaisilla pisteillä.

Aseta hiiri pisteen päälle nähdäksesi sääaseman nimen.

Klikkaa sitten nähdäksesi säähavainnot ja -ennusteet.

Kartan vaihtaminen: klikkaa mustalla rastilla varustettuja vihreitä pisteitä, niin voit zoomata sisään; viivalla varustettua vihreää pistettä, niin voit zoomata ulos tai vihreitä nuolia, niin pääset viereisille kartoille.


METAR-TAF: